Time;durP1;ratioP1;P1;durP2;ratioP2;P2;SDS_P1;SDS_P2;PMS_P1;PMS_P2;Temp;Humidity;BMP_temperature;BMP_pressure;BME280_temperature;BME280_humidity;BME280_pressure;Samples;Min_cycle;Max_cycle;Signal;HPM_P1;HPM_P2
2022/01/27 00:02:19;;;;;;;52.30;27.03;;;2.40;99.90;;;;;;5140541;27;20489;-61
2022/01/27 00:05:01;;;;;;;55.03;27.50;;;2.40;99.90;;;;;;5140501;27;20565;-61
2022/01/27 00:07:28;;;;;;;46.90;26.40;;;2.40;99.90;;;;;;5140835;27;20463;-61
2022/01/27 00:10:10;;;;;;;55.60;28.80;;;2.30;99.90;;;;;;5140047;27;20878;-61
2022/01/27 00:12:37;;;;;;;52.77;25.97;;;2.30;99.90;;;;;;5141303;27;20745;-61
2022/01/27 00:15:10;;;;;;;56.00;28.50;;;2.30;99.90;;;;;;5140807;27;20462;-61
2022/01/27 00:17:42;;;;;;;54.67;28.30;;;2.30;99.90;;;;;;5120396;28;20791;-61
2022/01/27 00:20:10;;;;;;;50.60;27.40;;;2.40;99.90;;;;;;5120370;28;20558;-61
2022/01/27 00:22:38;;;;;;;54.10;28.00;;;2.40;18.20;;;;;;5119843;28;20531;-61
2022/01/27 00:25:07;;;;;;;48.20;26.40;;;2.30;1.00;;;;;;5120319;28;20907;-61
2022/01/27 00:27:35;;;;;;;48.40;26.90;;;2.30;1.00;;;;;;5129677;27;20461;-62
2022/01/27 00:30:03;;;;;;;50.40;27.17;;;2.30;1.00;;;;;;5140710;27;20545;-62
2022/01/27 00:32:31;;;;;;;57.53;29.10;;;2.20;1.00;;;;;;5140087;27;20508;-61
2022/01/27 00:35:01;;;;;;;56.77;29.40;;;2.30;99.90;;;;;;5139482;27;20553;-62
2022/01/27 00:37:28;;;;;;;51.43;29.37;;;2.20;1.00;;;;;;5124745;27;20461;-61
2022/01/27 00:40:01;;;;;;;56.73;30.33;;;2.20;1.00;;;;;;5140003;27;20975;-62
2022/01/27 00:42:31;;;;;;;56.03;31.50;;;2.20;16.10;;;;;;5139864;27;21000;-61
2022/01/27 00:45:01;;;;;;;59.53;29.67;;;2.20;99.90;;;;;;5140896;27;20458;-61
2022/01/27 00:47:28;;;;;;;56.83;30.80;;;2.20;99.90;;;;;;5140398;27;20552;-62
2022/01/27 00:49:54;;;;;;;50.03;29.03;;;2.10;99.90;;;;;;5140231;27;20515;-61
2022/01/27 00:52:28;;;;;;;54.70;31.00;;;2.10;99.90;;;;;;5139868;27;20490;-62
2022/01/27 00:54:58;;;;;;;54.07;30.03;;;2.10;29.30;;;;;;5140464;27;20518;-61
2022/01/27 00:57:39;;;;;;;51.90;29.30;;;2.10;99.90;;;;;;5140243;27;20493;-62
2022/01/27 01:00:19;;;;;;;55.57;29.17;;;2.00;1.00;;;;;;5140084;27;20876;-61
2022/01/27 01:02:51;;;;;;;55.33;27.80;;;2.00;1.00;;;;;;5139439;27;20522;-62
2022/01/27 01:05:35;;;;;;;47.70;27.30;;;2.00;99.90;;;;;;5140067;27;20527;-62
2022/01/27 01:08:30;;;;;;;53.27;29.90;;;2.00;79.20;;;;;;5140091;27;20466;-61
2022/01/27 01:11:30;;;;;;;62.20;30.10;;;1.90;1.00;;;;;;5118994;28;20426;-62
2022/01/27 01:16:48;;;;;;;53.27;26.97;;;1.90;99.90;;;;;;5107894;27;20402;-61
2022/01/27 01:19:24;;;;;;;52.50;27.13;;;1.90;67.50;;;;;;5123493;27;20437;-62
2022/01/27 01:22:09;;;;;;;59.03;28.70;;;1.90;99.90;;;;;;5140167;27;20513;-62
2022/01/27 01:30:20;;;;;;;50.80;27.70;;;1.80;1.00;;;;;;5139099;27;20763;-62
2022/01/27 01:32:53;;;;;;;58.03;27.40;;;1.80;32.90;;;;;;5139488;27;20514;-61
2022/01/27 01:35:27;;;;;;;51.83;27.00;;;1.80;99.90;;;;;;5139129;27;20473;-62
2022/01/27 01:37:54;;;;;;;51.63;27.57;;;1.90;99.90;;;;;;5139623;27;20918;-62
2022/01/27 01:40:22;;;;;;;56.80;26.03;;;1.90;99.90;;;;;;5138181;27;20495;-62
2022/01/27 01:42:49;;;;;;;52.87;27.50;;;1.90;39.10;;;;;;5139626;27;20525;-61
2022/01/27 01:45:18;;;;;;;57.57;27.93;;;1.90;99.90;;;;;;5138966;27;20477;-62
2022/01/27 01:47:45;;;;;;;52.73;28.03;;;1.90;1.00;;;;;;5139733;27;20824;-62
2022/01/27 01:50:16;;;;;;;46.80;27.87;;;1.90;99.90;;;;;;5138624;27;20484;-62
2022/01/27 01:52:45;;;;;;;62.27;27.37;;;1.90;99.90;;;;;;5138961;27;20498;-62
2022/01/27 01:55:13;;;;;;;55.33;28.10;;;1.90;99.90;;;;;;5138568;27;20525;-62
2022/01/27 01:57:40;;;;;;;52.40;26.17;;;1.90;99.90;;;;;;5139280;27;20462;-62
2022/01/27 02:00:09;;;;;;;52.43;25.13;;;2.00;99.90;;;;;;5139212;27;20493;-62
2022/01/27 02:02:37;;;;;;;45.20;24.37;;;2.00;99.90;;;;;;5138210;27;20521;-62
2022/01/27 02:05:08;;;;;;;48.93;25.80;;;2.00;99.90;;;;;;5138911;27;20459;-61
2022/01/27 02:07:56;;;;;;;53.60;27.67;;;2.00;99.90;;;;;;5118719;28;20562;-62
2022/01/27 02:10:40;;;;;;;45.40;26.00;;;2.00;13.70;;;;;;5117945;28;20445;-61
2022/01/27 02:18:41;;;;;;;47.83;24.40;;;2.10;1.00;;;;;;5138457;27;20433;-61
2022/01/27 02:21:09;;;;;;;54.50;25.97;;;2.10;1.00;;;;;;5138403;27;20531;-61
2022/01/27 02:23:36;;;;;;;55.60;27.27;;;2.00;1.00;;;;;;5138259;27;20507;-61
2022/01/27 02:26:03;;;;;;;47.43;24.77;;;2.00;99.90;;;;;;5138478;27;20515;-62
2022/01/27 02:28:30;;;;;;;50.93;26.30;;;2.00;99.90;;;;;;5137502;27;20466;-62
2022/01/27 02:30:57;;;;;;;53.80;26.70;;;2.00;1.00;;;;;;5137888;27;20833;-61
2022/01/27 02:33:34;;;;;;;57.97;27.83;;;2.00;1.00;;;;;;5137945;27;20812;-61
2022/01/27 02:36:04;;;;;;;50.67;27.63;;;2.00;99.90;;;;;;5129618;27;20457;-62
2022/01/27 02:38:32;;;;;;;53.97;26.67;;;2.00;1.00;;;;;;5128912;28;20461;-62
2022/01/27 02:41:00;;;;;;;52.30;25.10;;;2.00;55.20;;;;;;5137987;28;20921;-62
2022/01/27 02:43:27;;;;;;;50.03;26.27;;;2.00;99.90;;;;;;5137827;28;20468;-61
2022/01/27 02:46:02;;;;;;;50.50;25.07;;;2.00;99.90;;;;;;5138604;28;20439;-62
2022/01/27 02:48:30;;;;;;;49.83;25.33;;;2.00;1.00;;;;;;5137647;28;20472;-61
2022/01/27 02:50:57;;;;;;;55.77;28.47;;;2.00;1.00;;;;;;5138798;28;20486;-61
2022/01/27 02:53:24;;;;;;;52.93;25.50;;;2.00;1.00;;;;;;5138081;28;20476;-62
2022/01/27 02:55:52;;;;;;;53.90;25.97;;;1.90;99.90;;;;;;5138403;28;20461;-61
2022/01/27 02:58:19;;;;;;;45.43;26.00;;;2.00;1.00;;;;;;5137528;28;20470;-61
2022/01/27 03:00:46;;;;;;;58.33;27.10;;;2.00;1.00;;;;;;5138257;27;20482;-61
2022/01/27 03:03:13;;;;;;;56.57;27.33;;;2.00;99.90;;;;;;5142424;27;20946;-60
2022/01/27 03:05:43;;;;;;;60.00;24.87;;;2.00;1.00;;;;;;5142438;27;20489;-61
2022/01/27 03:08:10;;;;;;;55.20;27.10;;;2.00;15.90;;;;;;5141601;27;20465;-60
2022/01/27 03:10:44;;;;;;;57.90;26.47;;;2.00;99.90;;;;;;5141307;27;20974;-61
2022/01/27 03:13:12;;;;;;;58.80;29.60;;;2.00;99.90;;;;;;5141683;27;20844;-60
2022/01/27 03:15:39;;;;;;;56.67;27.47;;;2.00;99.90;;;;;;5142117;27;20458;-58
2022/01/27 03:18:06;;;;;;;56.23;24.87;;;2.00;99.90;;;;;;5136624;27;20467;-61
2022/01/27 03:20:34;;;;;;;51.43;25.73;;;2.10;1.00;;;;;;5134474;27;20436;-61
2022/01/27 03:23:02;;;;;;;55.30;26.90;;;2.00;99.90;;;;;;5141880;27;20511;-59
2022/01/27 03:25:29;;;;;;;55.20;25.83;;;2.00;1.00;;;;;;5140796;27;20476;-61
2022/01/27 03:27:56;;;;;;;57.07;26.63;;;2.00;99.90;;;;;;5141489;27;20465;-60
2022/01/27 03:30:25;;;;;;;51.63;26.37;;;2.00;99.90;;;;;;5140991;27;20518;-61
2022/01/27 03:32:52;;;;;;;58.60;27.03;;;2.00;99.90;;;;;;5141470;27;20436;-61
2022/01/27 03:35:19;;;;;;;46.23;23.97;;;2.00;1.00;;;;;;5138387;27;21852;-61
2022/01/27 03:37:46;;;;;;;53.80;26.40;;;2.00;40.90;;;;;;5120702;28;20542;-61
2022/01/27 03:40:13;;;;;;;54.93;27.13;;;2.00;99.90;;;;;;5123916;27;20481;-60
2022/01/27 03:42:49;;;;;;;51.20;24.97;;;2.00;99.90;;;;;;5141264;27;20796;-61
2022/01/27 03:45:16;;;;;;;47.00;24.80;;;2.00;99.90;;;;;;5141192;27;20461;-60
2022/01/27 03:47:44;;;;;;;47.23;26.10;;;2.10;99.90;;;;;;5141587;27;20795;-61
2022/01/27 03:50:11;;;;;;;53.33;25.00;;;2.10;99.90;;;;;;5142376;27;20454;-60
2022/01/27 03:52:38;;;;;;;51.47;25.53;;;2.10;99.90;;;;;;5139523;27;20454;-60
2022/01/27 03:55:06;;;;;;;43.13;24.10;;;2.10;50.00;;;;;;5140350;27;20433;-61
2022/01/27 03:57:34;;;;;;;51.53;26.13;;;2.20;1.00;;;;;;5141428;27;20585;-59
2022/01/27 04:00:00;;;;;;;50.07;24.10;;;2.20;1.00;;;;;;5141381;27;20465;-59
2022/01/27 04:02:28;;;;;;;46.50;25.50;;;2.10;99.90;;;;;;5139566;27;20550;-57
2022/01/27 04:04:56;;;;;;;46.53;23.83;;;2.20;1.00;;;;;;5138116;27;20462;-58
2022/01/27 04:07:23;;;;;;;47.90;25.83;;;2.20;99.90;;;;;;5138937;27;20534;-58
2022/01/27 04:09:50;;;;;;;47.07;24.53;;;2.20;99.90;;;;;;5139493;27;20459;-60
2022/01/27 04:12:17;;;;;;;47.27;23.77;;;2.20;1.00;;;;;;5138542;27;20511;-59
2022/01/27 04:14:44;;;;;;;44.73;23.17;;;2.30;1.00;;;;;;5140886;27;20437;-55
2022/01/27 04:17:11;;;;;;;46.47;26.00;;;2.30;1.00;;;;;;5140167;27;20467;-60
2022/01/27 04:19:38;;;;;;;48.07;24.00;;;2.30;99.90;;;;;;5140558;27;20466;-60
2022/01/27 04:22:07;;;;;;;45.90;24.80;;;2.30;1.00;;;;;;5140194;27;20487;-61
2022/01/27 04:24:34;;;;;;;48.13;25.93;;;2.30;34.20;;;;;;5140057;27;20441;-61
2022/01/27 04:27:05;;;;;;;45.47;23.67;;;2.30;99.90;;;;;;5140402;27;20458;-59
2022/01/27 04:29:36;;;;;;;45.70;24.80;;;2.30;1.00;;;;;;5140844;27;20469;-60
2022/01/27 04:32:07;;;;;;;50.50;24.93;;;2.30;99.90;;;;;;5140868;27;20455;-60
2022/01/27 04:34:36;;;;;;;43.63;23.37;;;2.30;37.40;;;;;;5139743;27;20469;-60
2022/01/27 04:37:05;;;;;;;47.47;26.43;;;2.30;51.80;;;;;;5127437;27;20478;-60
2022/01/27 04:39:39;;;;;;;53.70;24.33;;;2.30;99.90;;;;;;5140313;27;20498;-58
2022/01/27 04:42:13;;;;;;;45.17;25.60;;;2.20;1.00;;;;;;5140447;27;20464;-60
2022/01/27 04:44:47;;;;;;;49.63;25.57;;;2.30;1.00;;;;;;5140090;27;20955;-60
2022/01/27 04:47:19;;;;;;;43.50;23.60;;;2.30;1.00;;;;;;5140103;27;20951;-58
2022/01/27 04:49:47;;;;;;;42.57;23.13;;;2.30;1.00;;;;;;5140549;27;20490;-57
2022/01/27 04:52:14;;;;;;;43.63;25.00;;;2.30;99.90;;;;;;5140267;27;20457;-60
2022/01/27 04:54:54;;;;;;;45.83;24.80;;;2.30;99.90;;;;;;5139234;27;20438;-59
2022/01/27 04:57:21;;;;;;;44.13;22.60;;;2.40;1.00;;;;;;5140128;27;20764;-61
2022/01/27 04:59:47;;;;;;;45.07;23.77;;;2.40;99.90;;;;;;5139318;27;20827;-58
2022/01/27 05:02:25;;;;;;;46.53;24.60;;;2.40;99.90;;;;;;5139935;27;20798;-59
2022/01/27 05:04:52;;;;;;;40.73;22.00;;;2.40;1.00;;;;;;5139083;27;20465;-60
2022/01/27 05:07:19;;;;;;;45.90;22.57;;;2.40;1.00;;;;;;5139936;27;20466;-59
2022/01/27 05:09:53;;;;;;;42.23;23.50;;;2.40;1.00;;;;;;5139288;27;20458;-59
2022/01/27 05:12:41;;;;;;;46.70;23.67;;;2.40;1.00;;;;;;5139317;27;20473;-60
2022/01/27 05:15:09;;;;;;;46.00;24.87;;;2.40;99.90;;;;;;5139352;27;20518;-55
2022/01/27 05:17:36;;;;;;;41.40;21.83;;;2.30;1.00;;;;;;5139330;27;20523;-60
2022/01/27 05:20:04;;;;;;;42.07;21.37;;;2.40;9.50;;;;;;5138962;27;20466;-60
2022/01/27 05:22:32;;;;;;;39.40;20.60;;;2.40;67.70;;;;;;5139036;27;20482;-57
2022/01/27 05:25:01;;;;;;;39.80;20.77;;;2.40;99.90;;;;;;5138395;27;20937;-58
2022/01/27 05:27:28;;;;;;;44.63;22.43;;;2.40;1.00;;;;;;5138949;27;20437;-60
2022/01/27 05:29:55;;;;;;;44.43;20.83;;;2.50;1.00;;;;;;5138593;27;20964;-57
2022/01/27 05:32:22;;;;;;;45.07;22.40;;;2.40;99.90;;;;;;5139146;27;20952;-58
2022/01/27 05:35:00;;;;;;;43.47;22.57;;;2.50;99.90;;;;;;5139200;27;20803;-58
2022/01/27 05:37:27;;;;;;;42.63;22.43;;;2.50;1.00;;;;;;5138775;27;20450;-59
2022/01/27 05:39:54;;;;;;;42.20;21.83;;;2.50;1.00;;;;;;5138674;27;20531;-54
2022/01/27 05:42:23;;;;;;;42.37;22.07;;;2.50;1.00;;;;;;5138635;27;20465;-57
2022/01/27 05:44:50;;;;;;;39.20;22.20;;;2.60;1.00;;;;;;5138261;27;20493;-60
2022/01/27 05:47:19;;;;;;;44.73;23.43;;;2.60;15.60;;;;;;5137804;27;20526;-58
2022/01/27 05:49:46;;;;;;;35.73;21.87;;;2.60;99.90;;;;;;5138476;27;20480;-58
2022/01/27 05:52:13;;;;;;;38.30;22.13;;;2.60;1.00;;;;;;5138438;27;20888;-60
2022/01/27 05:54:42;;;;;;;46.63;21.60;;;2.60;1.00;;;;;;5138450;27;20810;-60
2022/01/27 05:57:13;;;;;;;43.07;23.90;;;2.60;1.00;;;;;;5138121;27;20515;-59
2022/01/27 05:59:46;;;;;;;42.80;21.57;;;2.60;99.90;;;;;;5139026;27;20458;-59
2022/01/27 06:02:13;;;;;;;39.43;21.70;;;2.60;1.00;;;;;;5138474;27;20490;-58
2022/01/27 06:04:40;;;;;;;36.67;20.17;;;2.60;99.90;;;;;;5139259;27;20450;-58
2022/01/27 06:07:07;;;;;;;42.67;20.97;;;2.60;99.90;;;;;;5138940;27;20522;-58
2022/01/27 06:09:36;;;;;;;46.40;23.43;;;2.60;99.90;;;;;;5139312;27;20482;-59
2022/01/27 06:12:03;;;;;;;36.13;20.40;;;2.60;99.90;;;;;;5138947;27;20538;-59
2022/01/27 06:14:33;;;;;;;42.50;20.37;;;2.60;1.00;;;;;;5138311;27;20499;-60
2022/01/27 06:17:05;;;;;;;51.93;21.10;;;2.60;1.00;;;;;;5137746;27;20507;-60
2022/01/27 06:19:32;;;;;;;47.63;22.50;;;2.60;1.00;;;;;;5135473;27;20450;-60
2022/01/27 06:21:58;;;;;;;41.03;19.70;;;2.60;1.00;;;;;;5138741;27;20462;-58
2022/01/27 06:24:26;;;;;;;34.33;19.10;;;2.60;99.90;;;;;;5138731;27;20501;-57
2022/01/27 06:26:53;;;;;;;34.47;20.57;;;2.60;1.00;;;;;;5138730;27;20803;-56
2022/01/27 06:29:20;;;;;;;37.67;20.73;;;2.70;99.90;;;;;;5138370;27;20462;-60
2022/01/27 06:31:48;;;;;;;37.53;22.00;;;2.70;99.90;;;;;;5138057;27;20515;-60
2022/01/27 06:34:16;;;;;;;33.33;20.07;;;2.80;99.90;;;;;;5137935;27;20519;-57
2022/01/27 06:36:43;;;;;;;40.00;22.50;;;3.00;1.00;;;;;;5137898;27;20433;-57
2022/01/27 06:39:10;;;;;;;41.17;21.90;;;3.00;1.00;;;;;;5138366;27;20823;-56
2022/01/27 06:41:37;;;;;;;33.77;20.40;;;3.00;99.90;;;;;;5097395;28;20467;-55
2022/01/27 06:44:05;;;;;;;37.93;20.17;;;3.00;99.90;;;;;;5097500;28;20488;-58
2022/01/27 06:46:35;;;;;;;41.00;22.10;;;3.00;99.90;;;;;;5097215;28;20448;-59
2022/01/27 06:49:03;;;;;;;35.87;20.07;;;3.00;1.00;;;;;;5097504;28;20460;-59
2022/01/27 06:51:31;;;;;;;33.33;20.67;;;3.10;99.90;;;;;;5097356;28;20950;-60
2022/01/27 06:53:59;;;;;;;36.70;19.03;;;3.20;1.00;;;;;;5097238;28;20453;-58
2022/01/27 06:56:29;;;;;;;34.40;19.97;;;3.10;1.00;;;;;;5097159;28;20868;-59
2022/01/27 06:58:56;;;;;;;38.40;21.70;;;3.20;99.90;;;;;;5097159;28;20483;-60
2022/01/27 07:01:28;;;;;;;36.43;19.40;;;3.30;1.00;;;;;;5097274;28;20439;-58
2022/01/27 07:03:55;;;;;;;34.80;20.67;;;3.40;99.90;;;;;;5096984;28;20488;-58
2022/01/27 07:06:23;;;;;;;32.00;18.50;;;3.40;1.00;;;;;;5096892;28;20557;-60
2022/01/27 07:08:51;;;;;;;35.80;19.27;;;3.40;1.00;;;;;;5096937;28;20464;-59
2022/01/27 07:11:18;;;;;;;36.53;21.33;;;3.50;1.00;;;;;;5096977;28;20475;-60
2022/01/27 07:13:45;;;;;;;34.50;19.30;;;3.60;1.00;;;;;;5096735;28;20513;-58
2022/01/27 07:16:12;;;;;;;34.43;19.33;;;3.70;1.00;;;;;;5096181;28;20836;-60
2022/01/27 07:18:39;;;;;;;35.00;18.33;;;3.70;1.00;;;;;;5096186;28;20468;-59
2022/01/27 07:21:07;;;;;;;32.27;20.60;;;3.80;99.90;;;;;;5096595;28;20468;-59
2022/01/27 07:23:34;;;;;;;34.87;18.90;;;3.80;99.90;;;;;;5097002;28;20770;-58
2022/01/27 07:26:05;;;;;;;33.53;19.30;;;3.80;1.00;;;;;;5096352;28;20467;-60
2022/01/27 07:28:32;;;;;;;34.70;21.10;;;3.90;3.30;;;;;;5096425;28;20526;-55
2022/01/27 07:31:02;;;;;;;35.73;19.20;;;3.90;1.00;;;;;;5096308;28;20772;-56
2022/01/27 07:33:29;;;;;;;31.40;20.80;;;4.00;1.00;;;;;;5097228;28;20932;-59
2022/01/27 07:35:56;;;;;;;34.60;19.40;;;4.00;1.00;;;;;;5094030;28;20467;-55
2022/01/27 07:38:23;;;;;;;34.13;19.87;;;4.00;1.00;;;;;;5096881;28;20462;-55
2022/01/27 07:40:50;;;;;;;38.90;19.10;;;4.10;1.00;;;;;;5124518;28;20538;-60
2022/01/27 07:43:19;;;;;;;32.97;19.30;;;4.10;1.00;;;;;;5137610;28;20559;-56
2022/01/27 07:45:46;;;;;;;33.20;17.17;;;4.10;1.00;;;;;;5137561;28;20451;-59
2022/01/27 07:48:13;;;;;;;34.87;19.80;;;4.10;99.90;;;;;;5139904;27;20511;-59
2022/01/27 07:50:40;;;;;;;34.77;20.60;;;4.20;1.00;;;;;;5140760;27;20459;-58
2022/01/27 07:53:07;;;;;;;32.77;18.93;;;4.20;1.00;;;;;;5141131;27;20454;-60
2022/01/27 07:55:37;;;;;;;31.90;18.47;;;4.20;20.20;;;;;;5141709;27;20486;-58
2022/01/27 07:58:04;;;;;;;40.00;21.10;;;4.20;1.00;;;;;;5140626;27;20458;-58
2022/01/27 08:00:32;;;;;;;36.57;21.63;;;4.20;99.90;;;;;;5140870;27;20891;-59
2022/01/27 08:02:59;;;;;;;37.03;20.50;;;4.10;99.90;;;;;;5140137;27;20462;-60
2022/01/27 08:05:27;;;;;;;34.50;18.90;;;4.10;1.00;;;;;;5141037;27;20498;-60
2022/01/27 08:07:56;;;;;;;37.00;20.80;;;4.10;1.00;;;;;;5140594;27;20441;-58
2022/01/27 08:10:23;;;;;;;36.90;20.47;;;4.00;91.20;;;;;;5140303;27;20433;-59
2022/01/27 08:12:50;;;;;;;36.13;20.53;;;4.00;99.90;;;;;;5140826;27;20433;-59
2022/01/27 08:15:19;;;;;;;37.67;22.17;;;4.00;99.90;;;;;;5140940;27;20463;-60
2022/01/27 08:17:49;;;;;;;39.90;24.00;;;4.10;99.90;;;;;;5141096;27;20470;-61
2022/01/27 08:20:15;;;;;;;36.00;21.07;;;4.00;99.90;;;;;;5139901;27;20546;-60
2022/01/27 08:22:44;;;;;;;48.73;22.47;;;4.00;99.90;;;;;;5140554;27;20508;-60
2022/01/27 08:25:12;;;;;;;38.30;22.10;;;4.00;99.90;;;;;;5140379;27;20935;-61
2022/01/27 08:27:41;;;;;;;41.57;24.13;;;4.00;99.90;;;;;;5140695;27;20462;-62
2022/01/27 08:30:09;;;;;;;37.90;22.07;;;4.10;99.90;;;;;;5140079;27;20862;-62
2022/01/27 08:32:48;;;;;;;40.00;23.67;;;4.00;99.90;;;;;;5140694;27;20455;-57
2022/01/27 08:35:20;;;;;;;43.40;23.97;;;4.10;99.90;;;;;;5140421;27;20891;-51
2022/01/27 08:37:53;;;;;;;36.47;22.50;;;4.10;99.90;;;;;;5140591;27;20462;-55
2022/01/27 08:40:21;;;;;;;41.00;23.80;;;4.00;99.90;;;;;;5139107;27;20472;-56
2022/01/27 08:42:48;;;;;;;53.13;25.40;;;4.00;99.90;;;;;;5139824;27;20465;-52
2022/01/27 08:45:17;;;;;;;49.30;25.83;;;4.00;99.90;;;;;;5139318;27;20518;-55
2022/01/27 08:47:45;;;;;;;40.93;23.47;;;4.00;99.90;;;;;;5140518;27;20854;-54
2022/01/27 08:50:13;;;;;;;44.40;24.80;;;4.10;99.90;;;;;;5139689;27;20458;-52
2022/01/27 08:52:45;;;;;;;41.53;25.10;;;4.00;99.90;;;;;;5139403;27;20515;-55
2022/01/27 08:55:12;;;;;;;38.53;21.50;;;4.10;99.90;;;;;;5139657;27;20451;-56
2022/01/27 08:57:41;;;;;;;40.73;21.40;;;4.10;99.90;;;;;;5140309;27;20466;-56
2022/01/27 09:00:12;;;;;;;40.10;22.97;;;4.10;99.90;;;;;;5140147;27;20458;-55
2022/01/27 09:02:39;;;;;;;42.73;22.70;;;4.10;99.90;;;;;;5138741;27;20458;-57
2022/01/27 09:05:07;;;;;;;36.73;22.80;;;4.10;99.90;;;;;;5139563;27;20516;-58
2022/01/27 09:07:36;;;;;;;43.70;22.87;;;4.10;99.90;;;;;;5139407;27;20463;-57
2022/01/27 09:10:06;;;;;;;36.37;21.90;;;4.10;99.90;;;;;;5139945;27;20738;-58
2022/01/27 09:12:34;;;;;;;35.63;18.97;;;4.10;99.90;;;;;;5139008;27;20463;-54
2022/01/27 09:15:02;;;;;;;33.70;20.93;;;4.10;99.90;;;;;;5139484;27;20522;-57
2022/01/27 09:17:31;;;;;;;37.60;22.23;;;4.20;99.90;;;;;;5139290;27;20470;-57
2022/01/27 09:19:58;;;;;;;31.50;19.47;;;4.20;99.90;;;;;;5139651;27;20473;-55
2022/01/27 09:22:27;;;;;;;34.23;19.53;;;4.20;99.90;;;;;;5138335;27;20739;-58
2022/01/27 09:24:57;;;;;;;31.03;18.97;;;4.30;99.90;;;;;;5139029;27;20490;-57
2022/01/27 09:27:27;;;;;;;27.20;18.13;;;4.30;99.90;;;;;;5139424;27;20784;-60
2022/01/27 09:29:57;;;;;;;36.33;20.33;;;4.30;99.90;;;;;;5139301;27;20429;-59
2022/01/27 09:32:29;;;;;;;28.83;18.10;;;4.30;99.90;;;;;;5138784;27;20884;-58
2022/01/27 09:34:56;;;;;;;30.23;19.00;;;4.40;99.90;;;;;;5138342;27;20457;-58
2022/01/27 09:37:23;;;;;;;30.37;19.37;;;4.40;99.90;;;;;;5124856;27;20886;-59
2022/01/27 09:39:55;;;;;;;27.93;20.50;;;4.30;99.90;;;;;;5139183;27;20540;-57
2022/01/27 09:42:24;;;;;;;30.40;19.00;;;4.40;99.90;;;;;;5138989;27;20772;-56
2022/01/27 09:44:54;;;;;;;35.23;17.67;;;4.40;99.90;;;;;;5138279;27;20461;-59
2022/01/27 09:47:25;;;;;;;25.50;17.50;;;4.40;99.90;;;;;;5137664;27;20499;-58
2022/01/27 09:50:03;;;;;;;28.73;19.07;;;4.40;99.90;;;;;;5137712;27;20457;-60
2022/01/27 09:52:30;;;;;;;25.40;18.03;;;4.50;99.90;;;;;;5137323;27;21116;-61
2022/01/27 09:54:59;;;;;;;27.23;17.03;;;4.50;99.90;;;;;;5134337;27;20454;-59
2022/01/27 09:57:27;;;;;;;27.47;17.07;;;4.50;99.90;;;;;;5138244;27;20478;-59
2022/01/27 09:59:55;;;;;;;25.53;16.50;;;4.50;99.90;;;;;;5138344;27;20498;-60
2022/01/27 10:02:25;;;;;;;23.27;15.43;;;4.50;99.90;;;;;;5138482;27;20478;-59
2022/01/27 10:04:57;;;;;;;20.13;13.60;;;4.50;99.90;;;;;;5138048;27;20551;-60
2022/01/27 10:07:28;;;;;;;23.97;14.50;;;4.50;99.90;;;;;;5138748;27;20437;-61
2022/01/27 10:10:00;;;;;;;25.20;15.43;;;4.60;99.90;;;;;;5136457;27;20463;-60
2022/01/27 10:12:30;;;;;;;21.40;15.00;;;4.60;99.90;;;;;;5136689;27;20469;-60
2022/01/27 10:15:06;;;;;;;19.70;13.93;;;4.60;99.90;;;;;;5138310;27;20462;-58
2022/01/27 10:17:37;;;;;;;24.77;15.50;;;4.60;99.90;;;;;;5138177;27;20861;-57
2022/01/27 10:20:14;;;;;;;22.40;14.03;;;4.60;99.90;;;;;;5137593;27;20759;-61
2022/01/27 10:22:41;;;;;;;19.23;13.30;;;4.70;99.90;;;;;;5135741;27;20490;-58
2022/01/27 10:25:20;;;;;;;21.27;13.80;;;4.70;99.90;;;;;;5137395;27;20550;-61
2022/01/27 10:27:57;;;;;;;18.60;12.63;;;4.70;99.90;;;;;;5138019;27;20430;-59
2022/01/27 10:33:13;;;;;;;17.57;12.27;;;4.70;99.90;;;;;;5137199;27;20458;-57
2022/01/27 10:35:40;;;;;;;17.30;12.70;;;4.80;99.90;;;;;;5136571;27;20478;-58
2022/01/27 10:38:08;;;;;;;18.40;12.57;;;4.80;99.90;;;;;;5132977;27;20426;-60
2022/01/27 10:40:40;;;;;;;18.47;13.30;;;4.70;99.90;;;;;;5133165;27;20531;-58
2022/01/27 10:43:14;;;;;;;22.47;13.37;;;4.80;99.90;;;;;;5135470;28;20430;-59
2022/01/27 10:46:01;;;;;;;17.17;12.37;;;4.80;99.90;;;;;;5132766;28;20493;-58
2022/01/27 10:48:32;;;;;;;13.90;10.03;;;4.90;99.90;;;;;;5134900;28;20849;-54
2022/01/27 10:51:04;;;;;;;18.73;12.57;;;4.80;99.90;;;;;;5135922;28;20462;-58
2022/01/27 10:53:50;;;;;;;17.57;12.23;;;4.80;99.90;;;;;;5136037;28;20479;-54
2022/01/27 10:56:24;;;;;;;13.83;11.03;;;4.90;99.90;;;;;;5133454;28;20464;-58
2022/01/27 10:58:52;;;;;;;16.30;12.27;;;4.90;99.90;;;;;;5137461;28;20465;-59
2022/01/27 11:01:30;;;;;;;16.17;11.80;;;4.90;99.90;;;;;;5137866;28;20459;-58
2022/01/27 11:04:00;;;;;;;18.83;12.27;;;5.00;99.90;;;;;;5138043;28;20523;-59
2022/01/27 11:06:31;;;;;;;18.47;12.10;;;5.00;99.90;;;;;;5137027;28;20465;-59
2022/01/27 11:09:01;;;;;;;18.80;12.87;;;5.00;99.90;;;;;;5117541;28;20764;-59
2022/01/27 11:11:31;;;;;;;17.43;12.07;;;5.10;99.90;;;;;;5123066;28;20934;-58
2022/01/27 11:13:59;;;;;;;14.90;10.27;;;5.10;99.90;;;;;;5138375;28;20463;-55
2022/01/27 11:16:35;;;;;;;13.93;10.67;;;5.10;99.90;;;;;;5131416;28;20455;-59
2022/01/27 11:21:59;;;;;;;17.20;10.97;;;5.00;99.90;;;;;;5132262;27;20431;-57
2022/01/27 11:25:05;;;;;;;16.57;11.50;;;5.10;99.90;;;;;;5141296;27;20490;-59
2022/01/27 11:27:40;;;;;;;14.00;9.80;;;5.10;99.90;;;;;;5121895;27;20455;-58
2022/01/27 11:30:15;;;;;;;15.47;10.27;;;5.10;99.90;;;;;;5142104;27;20447;-59
2022/01/27 11:32:51;;;;;;;15.90;10.70;;;5.10;99.90;;;;;;5141517;27;20482;-59
2022/01/27 11:35:20;;;;;;;17.57;11.03;;;5.10;99.90;;;;;;5141477;27;20917;-60
2022/01/27 11:37:51;;;;;;;14.33;11.67;;;5.10;99.90;;;;;;5141408;27;20458;-58
2022/01/27 11:40:20;;;;;;;17.43;11.17;;;5.10;99.90;;;;;;5139875;27;20513;-56
2022/01/27 11:43:13;;;;;;;18.87;12.40;;;5.10;99.90;;;;;;5135974;27;20469;-59
2022/01/27 11:45:43;;;;;;;19.27;12.50;;;5.20;99.90;;;;;;5132960;27;20487;-54
2022/01/27 11:48:17;;;;;;;17.27;11.83;;;5.20;99.90;;;;;;5120656;28;20546;-58
2022/01/27 11:50:53;;;;;;;15.70;11.53;;;5.30;99.90;;;;;;5140653;27;20468;-56
2022/01/27 11:53:34;;;;;;;18.40;14.03;;;5.30;99.90;;;;;;5141024;27;20899;-59
2022/01/27 11:56:02;;;;;;;20.47;13.00;;;5.20;99.90;;;;;;5141393;27;20503;-58
2022/01/27 11:58:30;;;;;;;17.87;12.23;;;5.30;99.90;;;;;;5136048;27;20523;-56
2022/01/27 12:01:10;;;;;;;20.30;13.20;;;5.30;99.90;;;;;;5132190;27;20858;-56
2022/01/27 12:04:05;;;;;;;19.20;13.73;;;5.30;99.90;;;;;;5129544;27;21215;-57
2022/01/27 12:06:40;;;;;;;21.70;12.97;;;5.40;99.90;;;;;;5139834;27;20470;-58
2022/01/27 12:09:32;;;;;;;18.97;13.77;;;5.30;99.90;;;;;;5134313;27;20473;-59
2022/01/27 12:12:07;;;;;;;19.60;13.13;;;5.40;99.90;;;;;;5142104;27;20494;-59
2022/01/27 12:15:06;;;;;;;19.43;13.77;;;5.40;99.90;;;;;;5138632;27;20461;-58
2022/01/27 12:17:42;;;;;;;17.40;13.50;;;5.40;99.90;;;;;;5129632;27;20486;-55
2022/01/27 12:20:13;;;;;;;17.80;12.47;;;5.50;99.90;;;;;;5128856;27;20568;-58
2022/01/27 12:23:14;;;;;;;16.47;12.60;;;5.50;99.90;;;;;;5133127;27;20477;-56
2022/01/27 12:25:51;;;;;;;20.87;13.13;;;5.50;99.90;;;;;;5136875;27;20560;-58
2022/01/27 12:28:18;;;;;;;18.37;12.63;;;5.50;99.90;;;;;;5132289;27;20499;-59
2022/01/27 12:30:58;;;;;;;18.63;12.70;;;5.60;99.90;;;;;;5137992;27;20507;-61
2022/01/27 12:33:25;;;;;;;18.73;12.97;;;5.50;99.90;;;;;;5136916;27;20454;-57
2022/01/27 12:35:56;;;;;;;17.03;11.70;;;5.50;99.90;;;;;;5137335;27;20480;-57
2022/01/27 12:38:27;;;;;;;18.33;12.03;;;5.50;99.90;;;;;;5137330;27;20856;-60
2022/01/27 12:40:59;;;;;;;12.63;10.40;;;5.50;99.90;;;;;;5137160;27;20480;-60
2022/01/27 12:43:26;;;;;;;14.53;10.80;;;5.50;99.90;;;;;;5136568;27;20830;-57
2022/01/27 12:45:55;;;;;;;16.40;12.47;;;5.50;99.90;;;;;;5137302;27;20493;-54
2022/01/27 12:48:26;;;;;;;15.17;10.90;;;5.50;99.90;;;;;;5137688;27;20515;-57
2022/01/27 12:51:00;;;;;;;14.40;10.90;;;5.50;99.90;;;;;;5137432;27;20545;-56
2022/01/27 12:53:30;;;;;;;18.13;11.40;;;5.50;99.90;;;;;;5136762;27;20458;-59
2022/01/27 12:55:57;;;;;;;15.43;13.43;;;5.50;99.90;;;;;;5137999;27;20455;-58
2022/01/27 12:58:29;;;;;;;18.43;13.20;;;5.50;99.90;;;;;;5135872;27;20442;-59
2022/01/27 13:00:56;;;;;;;17.20;12.57;;;5.50;99.90;;;;;;5137343;27;20461;-59
2022/01/27 13:03:24;;;;;;;20.73;14.53;;;5.50;99.90;;;;;;5136346;27;20470;-60
2022/01/27 13:05:53;;;;;;;16.43;12.50;;;5.50;99.90;;;;;;5138752;27;20514;-59
2022/01/27 13:08:25;;;;;;;17.13;12.33;;;5.50;99.90;;;;;;5138195;27;20581;-59
2022/01/27 13:11:04;;;;;;;18.77;14.07;;;5.50;99.90;;;;;;5138973;27;20428;-59
2022/01/27 13:13:36;;;;;;;16.90;13.17;;;5.60;99.90;;;;;;5147523;27;20473;-57
2022/01/27 13:16:07;;;;;;;16.43;11.20;;;5.50;99.90;;;;;;5147159;27;20463;-56
2022/01/27 13:18:42;;;;;;;16.60;11.80;;;5.60;99.90;;;;;;5119017;28;20470;-59